Palchem 1 — 9HA2097 — position and weather

sailwx.info

Track history (hours):
 
Tides and Currents Weather Stations Pressure Air Temp Water Temp Dewpoint Dewpoint Depression Visibility Wind Speed Wind Dir Waves Ship Positions

Palchem 1

Last reported at 2014-Oct-15 12:23 UTC. Time now 2014-Nov-01 05:37 UTC.
Position N 01°10' E 103°42'.
Warning: this ship's position is 16 days out of date.

Length 143 m; draft 6.1 m.

Type: Tanker. MMSI: 249955000.

Date/timePositionNaut miles runAvg speedWind from/ knotsBaromVisibWave heightAir tempDewpointWater temp
2014-Oct-15 12:23N 01°10' E 103°42'6 7.4
2014-Oct-15 11:33N 01°11' E 103°48'4 4.2
2014-Oct-15 10:33N 01°15' E 103°48'0 0.1
2014-Oct-15 09:28N 01°15' E 103°48'0 0.0
2014-Oct-15 08:31N 01°15' E 103°48'0 0.0
2014-Oct-15 07:22N 01°15' E 103°48'0 0.0
2014-Oct-15 06:19N 01°15' E 103°48'0 0.0
2014-Oct-15 05:16N 01°15' E 103°48'0 0.0
2014-Oct-15 04:19N 01°15' E 103°48'0 0.0
2014-Oct-15 03:19N 01°15' E 103°48'0 0.0
2014-Oct-15 02:25N 01°15' E 103°48'0 0.0
2014-Oct-15 01:28N 01°15' E 103°48'0 0.0
2014-Oct-15 00:22N 01°15' E 103°48'0 0.0
2014-Oct-14 23:16N 01°15' E 103°48'0 0.0
2014-Oct-14 22:22N 01°15' E 103°48'0 0.0
2014-Oct-14 21:28N 01°15' E 103°48'0 0.0
2014-Oct-14 20:28N 01°15' E 103°48'0 0.1
2014-Oct-14 19:31N 01°15' E 103°48'0 0.0
2014-Oct-14 18:31N 01°15' E 103°48'0 0.0
2014-Oct-14 17:31N 01°15' E 103°48'0 0.0
2014-Oct-14 16:31N 01°15' E 103°48'0 0.0
2014-Oct-14 15:28N 01°15' E 103°48'0 0.0
2014-Oct-14 14:31N 01°15' E 103°48'0 0.0
2014-Oct-14 13:31N 01°15' E 103°48'1 0.6
2014-Oct-14 12:33N 01°15' E 103°47'9 8.5
2014-Oct-14 11:33N 01°12' E 103°39'5 3.5
2014-Oct-14 10:13N 01°16' E 103°36'1 0.0
2014-Oct-12 17:23N 01°16' E 103°36'0 0.0
2014-Oct-11 03:23N 01°16' E 103°36'  
Track history (hours):
 
Tides and Currents Weather Stations Pressure Air Temp Water Temp Dewpoint Dewpoint Depression Visibility Wind Speed Wind Dir Waves Ship Positions

Palchem 1

Last reported at 2014-Oct-15 12:23 UTC. Time now 2014-Nov-01 05:37 UTC.
Position N 01°10' E 103°42'.
Warning: this ship's position is 16 days out of date.

Length 143 m; draft 6.1 m.

Type: Tanker. MMSI: 249955000.

Date/timePositionNaut miles runAvg speedWind from/ knotsBaromVisibWave heightAir tempDewpointWater temp
2014-Oct-15 12:23N 01°10' E 103°42'6 7.4
2014-Oct-15 11:33N 01°11' E 103°48'4 4.2
2014-Oct-15 10:33N 01°15' E 103°48'0 0.1
2014-Oct-15 09:28N 01°15' E 103°48'0 0.0
2014-Oct-15 08:31N 01°15' E 103°48'0 0.0
2014-Oct-15 07:22N 01°15' E 103°48'0 0.0
2014-Oct-15 06:19N 01°15' E 103°48'0 0.0
2014-Oct-15 05:16N 01°15' E 103°48'0 0.0
2014-Oct-15 04:19N 01°15' E 103°48'0 0.0
2014-Oct-15 03:19N 01°15' E 103°48'0 0.0
2014-Oct-15 02:25N 01°15' E 103°48'0 0.0
2014-Oct-15 01:28N 01°15' E 103°48'0 0.0
2014-Oct-15 00:22N 01°15' E 103°48'0 0.0
2014-Oct-14 23:16N 01°15' E 103°48'0 0.0
2014-Oct-14 22:22N 01°15' E 103°48'0 0.0
2014-Oct-14 21:28N 01°15' E 103°48'0 0.0
2014-Oct-14 20:28N 01°15' E 103°48'0 0.1
2014-Oct-14 19:31N 01°15' E 103°48'0 0.0
2014-Oct-14 18:31N 01°15' E 103°48'0 0.0
2014-Oct-14 17:31N 01°15' E 103°48'0 0.0
2014-Oct-14 16:31N 01°15' E 103°48'0 0.0
2014-Oct-14 15:28N 01°15' E 103°48'0 0.0
2014-Oct-14 14:31N 01°15' E 103°48'0 0.0
2014-Oct-14 13:31N 01°15' E 103°48'1 0.6
2014-Oct-14 12:33N 01°15' E 103°47'9 8.5
2014-Oct-14 11:33N 01°12' E 103°39'5 3.5
2014-Oct-14 10:13N 01°16' E 103°36'1 0.0
2014-Oct-12 17:23N 01°16' E 103°36'0 0.0
2014-Oct-11 03:23N 01°16' E 103°36'  

Dump ship's entire track history